createdAt,value
2022-07-26T04:46:21.500Z,19.39
2022-07-26T04:47:22.403Z,19.39
2022-07-26T04:48:22.400Z,19.40
2022-07-26T04:49:22.385Z,19.42
2022-07-26T04:50:22.356Z,19.42
2022-07-26T04:51:29.489Z,19.42
2022-07-26T04:52:22.336Z,19.42
2022-07-26T04:53:22.355Z,19.40
2022-07-26T04:54:22.308Z,19.39
2022-07-26T04:55:22.311Z,19.40
2022-07-26T04:56:22.297Z,19.39
2022-07-26T04:57:22.288Z,19.39
2022-07-26T04:58:22.281Z,19.38
2022-07-26T04:59:22.283Z,19.35
2022-07-26T05:00:23.636Z,19.38
2022-07-26T05:01:22.256Z,19.39
2022-07-26T05:02:22.338Z,19.40
2022-07-26T05:03:22.215Z,19.39
2022-07-26T05:04:22.209Z,19.40
2022-07-26T05:05:22.321Z,19.40
2022-07-26T05:06:22.175Z,19.43
2022-07-26T05:07:22.173Z,19.42
2022-07-26T05:08:23.085Z,19.46
2022-07-26T05:09:22.154Z,19.46
2022-07-26T05:10:22.216Z,19.50
2022-07-26T05:11:22.130Z,19.49
2022-07-26T05:12:22.179Z,19.47
2022-07-26T05:13:25.241Z,19.46
2022-07-26T05:15:17.234Z,19.50
2022-07-26T05:16:18.238Z,19.52
2022-07-26T05:17:18.251Z,19.55
2022-07-26T05:18:18.178Z,19.58
2022-07-26T05:19:18.176Z,19.61
2022-07-26T05:20:18.152Z,19.64
2022-07-26T05:21:18.136Z,19.68
2022-07-26T05:22:18.130Z,19.65
2022-07-26T05:23:18.148Z,19.67
2022-07-26T05:24:18.115Z,19.70
2022-07-26T05:25:18.107Z,19.72
2022-07-26T05:26:18.117Z,19.75
2022-07-26T05:27:18.080Z,19.78
2022-07-26T05:28:18.070Z,19.79
2022-07-26T05:29:18.069Z,19.82
2022-07-26T05:30:18.086Z,19.85
2022-07-26T05:31:18.065Z,19.86
2022-07-26T05:32:18.025Z,19.87
2022-07-26T05:33:18.013Z,19.87
2022-07-26T05:34:18.011Z,19.87
2022-07-26T05:35:17.993Z,19.92
2022-07-26T05:36:17.991Z,19.94
2022-07-26T05:37:17.955Z,19.98
2022-07-26T05:38:17.968Z,19.95
2022-07-26T05:39:18.585Z,19.90
2022-07-26T05:40:17.966Z,19.90
2022-07-26T05:41:17.929Z,19.90
2022-07-26T05:42:17.914Z,19.86
2022-07-26T05:43:17.903Z,19.87
2022-07-26T05:44:17.892Z,19.90
2022-07-26T05:45:17.886Z,19.90
2022-07-26T05:46:17.929Z,19.92
2022-07-26T05:47:17.963Z,19.86
2022-07-26T05:48:17.917Z,19.79
2022-07-26T05:49:17.875Z,19.76
2022-07-26T05:50:17.821Z,19.79
2022-07-26T05:51:18.042Z,19.86
2022-07-26T05:52:17.810Z,19.92
2022-07-26T05:53:17.792Z,19.98
2022-07-26T05:54:17.771Z,20.02
2022-07-26T05:55:17.772Z,20.01
2022-07-26T05:56:17.747Z,20.05
2022-07-26T05:57:17.749Z,20.12
2022-07-26T05:58:17.737Z,20.13
2022-07-26T05:59:17.746Z,20.04
2022-07-26T06:00:17.746Z,20.07
2022-07-26T06:01:17.693Z,20.10
2022-07-26T06:02:17.785Z,20.12
2022-07-26T06:03:17.681Z,20.15
2022-07-26T06:04:17.903Z,20.13
2022-07-26T06:05:17.671Z,20.15
2022-07-26T06:06:17.711Z,20.17
2022-07-26T06:07:17.626Z,20.15
2022-07-26T06:08:17.678Z,20.12
2022-07-26T06:09:17.600Z,20.07
2022-07-26T06:10:17.620Z,20.08
2022-07-26T06:11:17.603Z,20.15
2022-07-26T06:12:17.600Z,20.20
2022-07-26T06:13:17.584Z,20.25
2022-07-26T06:14:17.569Z,20.20
2022-07-26T06:15:17.583Z,20.22
2022-07-26T06:16:17.540Z,20.17
2022-07-26T06:17:17.575Z,20.20
2022-07-26T06:18:17.520Z,20.26
2022-07-26T06:19:17.514Z,20.34
2022-07-26T06:20:18.326Z,20.34
2022-07-26T06:21:17.477Z,20.34
2022-07-26T06:22:17.691Z,20.30
2022-07-26T06:23:17.455Z,20.22
2022-07-26T06:24:17.481Z,20.23
2022-07-26T06:25:17.467Z,20.16
2022-07-26T06:26:17.432Z,20.22
2022-07-26T06:27:17.416Z,20.33
2022-07-26T06:28:17.436Z,20.38
2022-07-26T06:29:17.415Z,20.48
2022-07-26T06:30:18.233Z,20.40
2022-07-26T06:31:17.451Z,20.35
2022-07-26T06:32:17.476Z,20.35
2022-07-26T06:33:17.373Z,20.41
2022-07-26T06:34:17.343Z,20.46
2022-07-26T06:35:23.829Z,20.58
2022-07-26T06:36:17.317Z,20.69
2022-07-26T06:37:17.307Z,20.75
2022-07-26T06:38:17.331Z,20.78
2022-07-26T06:39:17.318Z,20.73
2022-07-26T06:40:17.279Z,20.78
2022-07-26T06:41:17.286Z,20.82
2022-07-26T06:42:17.262Z,20.87
2022-07-26T06:43:17.281Z,20.88
2022-07-26T06:44:17.243Z,20.90
2022-07-26T06:45:17.250Z,20.91
2022-07-26T06:46:17.268Z,20.88
2022-07-26T06:47:17.206Z,20.87
2022-07-26T06:48:17.233Z,20.83
2022-07-26T06:49:21.854Z,20.73
2022-07-26T06:50:17.208Z,20.75
2022-07-26T06:51:17.152Z,20.68
2022-07-26T06:52:17.148Z,20.63
2022-07-26T06:53:17.131Z,20.60
2022-07-26T06:54:17.128Z,20.56
2022-07-26T06:55:17.118Z,20.56
2022-07-26T06:56:17.109Z,20.51
2022-07-26T06:57:17.091Z,20.48
2022-07-26T06:58:17.093Z,20.48
2022-07-26T06:59:17.097Z,20.46
2022-07-26T07:00:17.068Z,20.40
2022-07-26T07:01:55.485Z,20.38
2022-07-26T07:02:17.115Z,20.41
2022-07-26T07:03:17.044Z,20.46
2022-07-26T07:04:17.212Z,20.50
2022-07-26T07:05:17.070Z,20.56
2022-07-26T07:06:17.001Z,20.56
2022-07-26T07:07:17.025Z,20.60
2022-07-26T07:08:16.981Z,20.66
2022-07-26T07:09:16.977Z,20.63
2022-07-26T07:10:16.950Z,20.48
2022-07-26T07:11:16.979Z,20.46
2022-07-26T07:12:16.985Z,20.42
2022-07-26T07:13:16.930Z,20.42
2022-07-26T07:14:16.923Z,20.41
2022-07-26T07:15:16.909Z,20.44
2022-07-26T07:16:16.978Z,20.54
2022-07-26T07:17:20.163Z,20.60
2022-07-26T07:18:16.879Z,20.64
2022-07-26T07:19:16.896Z,20.75
2022-07-26T07:20:16.845Z,20.83
2022-07-26T07:21:16.823Z,20.91
2022-07-26T07:22:16.838Z,20.93
2022-07-26T07:23:16.837Z,21.00
2022-07-26T07:24:16.806Z,21.01
2022-07-26T07:25:16.792Z,21.11
2022-07-26T07:26:16.766Z,21.16
2022-07-26T07:27:16.778Z,21.16
2022-07-26T07:28:16.777Z,21.06
2022-07-26T07:29:16.738Z,21.09
2022-07-26T07:30:16.744Z,21.12
2022-07-26T07:31:16.783Z,21.13
2022-07-26T07:32:18.725Z,21.13
2022-07-26T07:33:22.505Z,21.21
2022-07-26T07:34:16.686Z,21.19
2022-07-26T07:35:16.665Z,21.18
2022-07-26T07:36:16.659Z,21.09
2022-07-26T07:37:16.708Z,21.11
2022-07-26T07:38:16.652Z,21.18
2022-07-26T07:39:17.550Z,21.26
2022-07-26T07:40:16.624Z,21.24
2022-07-26T07:41:16.620Z,21.13
2022-07-26T07:42:16.616Z,21.08
2022-07-26T07:43:16.609Z,21.00
2022-07-26T07:44:16.575Z,20.88
2022-07-26T07:45:16.573Z,20.96
2022-07-26T07:46:16.592Z,21.09
2022-07-26T07:47:16.550Z,21.22
2022-07-26T07:48:33.753Z,21.30
2022-07-26T07:49:16.558Z,21.38
2022-07-26T07:50:16.540Z,21.48
2022-07-26T07:51:16.507Z,21.46
2022-07-26T07:52:16.514Z,21.49
2022-07-26T07:53:16.504Z,21.55
2022-07-26T07:54:16.465Z,21.64
2022-07-26T07:55:40.446Z,21.61
2022-07-26T07:56:16.469Z,21.64
2022-07-26T07:57:16.484Z,21.55
2022-07-26T07:58:17.238Z,21.46
2022-07-26T07:59:16.456Z,21.49
2022-07-26T08:00:16.403Z,21.52
2022-07-26T08:01:16.458Z,21.56
2022-07-26T08:02:16.382Z,21.66
2022-07-26T08:03:17.968Z,21.71
2022-07-26T08:04:16.454Z,21.82
2022-07-26T08:05:16.359Z,21.89
2022-07-26T08:06:16.348Z,21.98
2022-07-26T08:07:16.308Z,21.94
2022-07-26T08:08:16.319Z,21.85
2022-07-26T08:09:16.320Z,21.83
2022-07-26T08:10:16.358Z,21.94
2022-07-26T08:11:16.279Z,22.12
2022-07-26T08:12:16.258Z,22.21
2022-07-26T08:13:16.271Z,22.35
2022-07-26T08:14:16.276Z,22.51
2022-07-26T08:15:16.300Z,22.69
2022-07-26T08:16:16.329Z,22.72
2022-07-26T08:17:16.210Z,22.51
2022-07-26T08:18:16.196Z,22.49
2022-07-26T08:19:16.642Z,22.61
2022-07-26T08:20:16.246Z,22.70
2022-07-26T08:21:16.205Z,22.69
2022-07-26T08:22:16.165Z,22.63
2022-07-26T08:23:16.152Z,22.64
2022-07-26T08:24:16.174Z,22.74
2022-07-26T08:25:16.110Z,22.91
2022-07-26T08:26:16.104Z,23.12
2022-07-26T08:27:16.116Z,23.00
2022-07-26T08:28:37.424Z,22.94
2022-07-26T08:29:16.560Z,22.75
2022-07-26T08:30:16.066Z,22.67
2022-07-26T08:31:16.211Z,22.61
2022-07-26T08:32:16.049Z,22.84
2022-07-26T08:33:16.064Z,22.96
2022-07-26T08:34:16.029Z,23.11
2022-07-26T08:35:17.657Z,23.31
2022-07-26T08:36:15.996Z,23.39
2022-07-26T08:37:17.860Z,23.34
2022-07-26T08:38:15.978Z,23.44
2022-07-26T08:39:15.999Z,23.63
2022-07-26T08:40:15.947Z,23.82
2022-07-26T08:41:15.935Z,23.90
2022-07-26T08:42:15.936Z,23.99
2022-07-26T08:43:15.938Z,24.00
2022-07-26T08:44:15.925Z,24.00
2022-07-26T08:45:15.904Z,24.06
2022-07-26T08:46:15.984Z,24.11
2022-07-26T08:47:15.871Z,24.19
2022-07-26T08:48:17.610Z,24.19
2022-07-26T08:49:16.056Z,24.31
2022-07-26T08:50:16.066Z,24.30
2022-07-26T08:51:15.848Z,24.11
2022-07-26T08:52:15.847Z,24.09
2022-07-26T08:53:15.818Z,24.09
2022-07-26T08:54:15.809Z,24.19
2022-07-26T08:55:22.315Z,24.14
2022-07-26T08:56:15.781Z,23.99
2022-07-26T08:57:15.774Z,24.12
2022-07-26T08:58:15.775Z,24.26
2022-07-26T08:59:20.069Z,24.45
2022-07-26T09:00:15.834Z,24.59
2022-07-26T09:01:15.810Z,24.86
2022-07-26T09:02:15.710Z,25.08
2022-07-26T09:03:15.693Z,25.17
2022-07-26T09:04:30.012Z,24.99
2022-07-26T09:05:15.714Z,24.98
2022-07-26T09:06:15.666Z,25.12
2022-07-26T09:07:15.683Z,25.11
2022-07-26T09:08:15.648Z,24.71
2022-07-26T09:09:15.640Z,24.39
2022-07-26T09:10:15.719Z,24.16
2022-07-26T09:11:15.624Z,24.09
2022-07-26T09:12:15.598Z,23.93
2022-07-26T09:13:15.588Z,23.82
2022-07-26T09:14:15.594Z,23.92
2022-07-26T09:15:22.129Z,23.94
2022-07-26T09:16:15.586Z,23.89
2022-07-26T09:17:15.586Z,23.96
2022-07-26T09:18:15.543Z,23.94
2022-07-26T09:19:15.534Z,23.93
2022-07-26T09:20:15.619Z,23.84
2022-07-26T09:21:16.425Z,23.77
2022-07-26T09:22:15.526Z,23.79
2022-07-26T09:23:15.480Z,23.86
2022-07-26T09:24:15.472Z,23.97
2022-07-26T09:25:15.489Z,23.81
2022-07-26T09:26:15.447Z,23.82
2022-07-26T09:27:15.471Z,23.84
2022-07-26T09:28:15.446Z,23.90
2022-07-26T09:29:15.413Z,24.00
2022-07-26T09:30:15.462Z,24.12
2022-07-26T09:31:15.458Z,24.23
2022-07-26T09:32:15.435Z,24.23
2022-07-26T09:33:15.394Z,24.09
2022-07-26T09:34:15.379Z,23.84
2022-07-26T09:35:45.254Z,23.86
2022-07-26T09:36:15.359Z,24.18
2022-07-26T09:37:15.329Z,24.74
2022-07-26T09:38:15.331Z,24.99
2022-07-26T09:39:15.430Z,25.01
2022-07-26T09:40:15.369Z,24.82
2022-07-26T09:41:15.289Z,24.70
2022-07-26T09:42:28.676Z,24.75
2022-07-26T09:43:15.748Z,24.84
2022-07-26T09:44:15.262Z,24.75
2022-07-26T09:45:15.242Z,24.84
2022-07-26T09:46:15.314Z,24.79
2022-07-26T09:47:15.246Z,25.04
2022-07-26T09:48:15.226Z,25.49
2022-07-26T09:49:15.284Z,26.27
2022-07-26T09:50:15.457Z,27.11
2022-07-26T09:51:15.200Z,27.74
2022-07-26T09:52:15.178Z,28.06
2022-07-26T09:53:15.168Z,28.38
2022-07-26T09:54:15.885Z,28.74
2022-07-26T09:55:21.671Z,28.15
2022-07-26T09:56:15.143Z,27.96
2022-07-26T09:57:15.128Z,28.97
2022-07-26T09:58:15.117Z,29.66
2022-07-26T09:59:15.103Z,29.05
2022-07-26T10:00:15.087Z,29.10
2022-07-26T10:01:15.151Z,30.03
2022-07-26T10:02:15.072Z,30.15
2022-07-26T10:03:15.104Z,29.70
2022-07-26T10:04:15.080Z,29.55
2022-07-26T10:05:15.053Z,29.42
2022-07-26T10:06:15.033Z,29.02
2022-07-26T10:07:15.020Z,27.88
2022-07-26T10:08:15.075Z,28.39
2022-07-26T10:09:15.067Z,28.80
2022-07-26T10:10:14.997Z,29.79
2022-07-26T10:11:14.979Z,30.51
2022-07-26T10:12:14.976Z,30.83
2022-07-26T10:13:14.966Z,31.49
2022-07-26T10:14:14.946Z,31.18
2022-07-26T10:15:14.964Z,31.32
2022-07-26T10:16:14.944Z,32.19
2022-07-26T10:17:14.933Z,32.25
2022-07-26T10:18:16.727Z,32.77
2022-07-26T10:19:14.899Z,32.91
2022-07-26T10:20:17.422Z,33.56
2022-07-26T10:21:14.892Z,34.14
2022-07-26T10:22:14.889Z,34.76
2022-07-26T10:23:14.867Z,35.31
2022-07-26T10:24:14.870Z,34.94
2022-07-26T10:25:14.846Z,34.14
2022-07-26T10:26:14.842Z,32.69
2022-07-26T10:27:14.821Z,31.53
2022-07-26T10:28:14.807Z,30.70
2022-07-26T10:29:14.830Z,30.11
2022-07-26T10:30:14.793Z,29.69
2022-07-26T10:31:14.849Z,29.20
2022-07-26T10:32:14.774Z,28.77
2022-07-26T10:33:14.765Z,28.60
2022-07-26T10:34:14.789Z,28.39
2022-07-26T10:35:21.278Z,28.09
2022-07-26T10:36:14.734Z,27.93
2022-07-26T10:37:14.724Z,27.90
2022-07-26T10:38:14.714Z,28.01
2022-07-26T10:39:14.704Z,28.09
2022-07-26T10:40:14.728Z,28.18
2022-07-26T10:41:14.696Z,27.98
2022-07-26T10:42:14.665Z,27.74
2022-07-26T10:43:39.496Z,27.42
2022-07-26T10:44:14.644Z,27.02
2022-07-26T10:45:14.630Z,26.94
2022-07-26T10:46:14.669Z,26.97
2022-07-26T10:47:14.625Z,27.05
2022-07-26T10:48:14.615Z,26.87
2022-07-26T10:49:14.646Z,26.44
2022-07-26T10:50:31.832Z,26.49
2022-07-26T10:51:14.566Z,26.44
2022-07-26T10:52:14.571Z,26.23
2022-07-26T10:53:14.549Z,26.03
2022-07-26T10:54:14.842Z,25.72
2022-07-26T10:55:14.519Z,25.54
2022-07-26T10:56:14.513Z,26.21
2022-07-26T10:57:14.536Z,26.42
2022-07-26T10:58:14.494Z,26.65
2022-07-26T10:59:20.316Z,27.45
2022-07-26T11:00:14.485Z,27.33
2022-07-26T11:01:14.567Z,27.53
2022-07-26T11:02:14.462Z,27.78
2022-07-26T11:03:15.860Z,28.15
2022-07-26T11:04:14.678Z,28.46
2022-07-26T11:05:14.450Z,28.03
2022-07-26T11:06:14.438Z,27.61
2022-07-26T11:07:14.410Z,27.61
2022-07-26T11:08:14.408Z,27.61
2022-07-26T11:09:14.386Z,27.48
2022-07-26T11:10:14.386Z,27.27
2022-07-26T11:11:14.360Z,27.50
2022-07-26T11:12:14.373Z,27.77
2022-07-26T11:13:14.418Z,27.87
2022-07-26T11:14:14.741Z,27.83
2022-07-26T11:15:14.313Z,27.80
2022-07-26T11:16:14.387Z,27.86
2022-07-26T11:17:14.323Z,27.84
2022-07-26T11:18:14.283Z,27.99
2022-07-26T11:19:14.287Z,28.20
2022-07-26T11:20:14.263Z,28.20
2022-07-26T11:21:14.274Z,28.09
2022-07-26T11:22:14.263Z,27.81
2022-07-26T11:23:14.241Z,27.53
2022-07-26T11:24:14.689Z,27.63
2022-07-26T11:25:14.221Z,27.76
2022-07-26T11:26:14.231Z,27.87
2022-07-26T11:27:14.198Z,27.95
2022-07-26T11:28:14.190Z,27.81
2022-07-26T11:29:17.530Z,27.59
2022-07-26T11:30:14.163Z,27.58
2022-07-26T11:31:14.489Z,27.43
2022-07-26T11:32:18.105Z,27.18
2022-07-26T11:33:14.124Z,27.05
2022-07-26T11:34:14.537Z,27.05
2022-07-26T11:35:14.130Z,26.96
2022-07-26T11:36:14.103Z,26.90
2022-07-26T11:37:14.151Z,26.91
2022-07-26T11:38:14.078Z,27.03
2022-07-26T11:39:14.069Z,27.02
2022-07-26T11:40:14.049Z,26.98
2022-07-26T11:41:14.051Z,27.20
2022-07-26T11:42:14.033Z,27.53
2022-07-26T11:43:14.028Z,27.68
2022-07-26T11:44:14.284Z,27.34
2022-07-26T11:45:13.997Z,27.13
2022-07-26T11:46:14.106Z,27.25
2022-07-26T11:47:14.222Z,27.38
2022-07-26T11:48:13.979Z,27.46
2022-07-26T11:49:15.264Z,27.83
2022-07-26T11:50:22.260Z,28.28
2022-07-26T11:51:14.047Z,28.73
2022-07-26T11:52:13.929Z,29.11
2022-07-26T11:53:13.934Z,29.49
2022-07-26T11:54:14.277Z,29.74
2022-07-26T11:55:13.894Z,30.37
2022-07-26T11:56:13.931Z,30.49
2022-07-26T11:57:13.878Z,30.21
2022-07-26T11:58:13.863Z,29.55
2022-07-26T11:59:13.875Z,29.35
2022-07-26T12:00:13.881Z,29.66
2022-07-26T12:01:13.854Z,29.02
2022-07-26T12:02:13.952Z,29.08
2022-07-26T12:03:13.841Z,29.69
2022-07-26T12:04:14.260Z,30.45
2022-07-26T12:05:13.949Z,31.54
2022-07-26T12:06:13.801Z,31.52
2022-07-26T12:07:13.822Z,32.06
2022-07-26T12:08:13.764Z,32.87
2022-07-26T12:09:13.777Z,33.26
2022-07-26T12:10:13.767Z,33.89
2022-07-26T12:11:13.759Z,34.12
2022-07-26T12:12:13.752Z,34.64
2022-07-26T12:13:13.748Z,34.94
2022-07-26T12:14:18.441Z,34.98
2022-07-26T12:15:13.713Z,34.55
2022-07-26T12:16:13.796Z,34.23
2022-07-26T12:17:13.714Z,33.62
2022-07-26T12:18:13.685Z,32.76
2022-07-26T12:19:13.682Z,31.88
2022-07-26T12:20:13.692Z,31.25
2022-07-26T12:21:13.642Z,30.48
2022-07-26T12:22:13.653Z,29.89
2022-07-26T12:23:13.637Z,29.18
2022-07-26T12:24:14.012Z,28.82
2022-07-26T12:25:13.824Z,28.54
2022-07-26T12:26:13.818Z,28.36
2022-07-26T12:27:17.455Z,28.14
2022-07-26T12:28:13.570Z,27.91
2022-07-26T12:29:14.275Z,27.61
2022-07-26T12:30:13.819Z,26.97
2022-07-26T12:31:13.601Z,26.49
2022-07-26T12:32:13.554Z,25.86
2022-07-26T12:33:13.530Z,24.86
2022-07-26T12:34:13.968Z,23.84
2022-07-26T12:35:13.504Z,22.88
2022-07-26T12:36:13.527Z,22.27
2022-07-26T12:37:13.484Z,21.71
2022-07-26T12:38:13.464Z,21.03
2022-07-26T12:39:13.458Z,20.61
2022-07-26T12:40:13.441Z,20.26
2022-07-26T12:41:13.808Z,20.10
2022-07-26T12:42:16.846Z,20.05
2022-07-26T12:43:13.420Z,20.01
2022-07-26T12:44:13.803Z,19.94
2022-07-26T12:45:13.397Z,20.00
2022-07-26T12:46:13.412Z,19.98
2022-07-26T12:47:13.652Z,20.05
2022-07-26T12:48:13.363Z,20.02
2022-07-26T12:49:13.457Z,20.07
2022-07-26T12:50:13.335Z,20.13
2022-07-26T12:51:13.316Z,20.20
2022-07-26T12:52:13.341Z,20.22
2022-07-26T12:53:13.341Z,20.25
2022-07-26T12:54:13.859Z,20.20
2022-07-26T12:55:19.784Z,20.25
2022-07-26T12:56:13.278Z,20.35
2022-07-26T12:57:13.263Z,20.41
2022-07-26T12:58:14.220Z,20.50
2022-07-26T12:59:17.857Z,20.56
2022-07-26T13:00:13.239Z,20.63
2022-07-26T13:01:13.304Z,20.71
2022-07-26T13:02:13.222Z,20.83
2022-07-26T13:03:14.168Z,20.98
2022-07-26T13:04:13.633Z,21.21
2022-07-26T13:05:13.243Z,21.45
2022-07-26T13:06:13.169Z,21.71
2022-07-26T13:07:13.148Z,21.94
2022-07-26T13:08:13.140Z,22.26
2022-07-26T13:09:13.141Z,22.56
2022-07-26T13:11:13.109Z,23.09
2022-07-26T13:12:13.086Z,23.39
2022-07-26T13:13:13.089Z,23.68
2022-07-26T13:14:13.539Z,24.06
2022-07-26T13:15:13.055Z,24.55
2022-07-26T13:16:13.043Z,25.59
2022-07-26T13:17:13.108Z,25.97
2022-07-26T13:18:13.027Z,26.20
2022-07-26T13:19:13.022Z,27.08
2022-07-26T13:20:13.022Z,27.78
2022-07-26T13:21:12.998Z,28.27
2022-07-26T13:22:12.992Z,27.96
2022-07-26T13:23:15.841Z,27.61
2022-07-26T13:24:13.358Z,27.45
2022-07-26T13:25:12.948Z,27.38
2022-07-26T13:26:12.962Z,27.21
2022-07-26T13:27:12.929Z,27.48
2022-07-26T13:28:12.920Z,28.46
2022-07-26T13:29:12.923Z,29.17
2022-07-26T13:30:12.933Z,29.17
2022-07-26T13:31:13.047Z,29.62
2022-07-26T13:32:12.905Z,29.91
2022-07-26T13:33:12.884Z,30.18
2022-07-26T13:34:13.442Z,30.51
2022-07-26T13:35:12.845Z,30.94
2022-07-26T13:36:12.875Z,30.85
2022-07-26T13:37:12.837Z,30.44
2022-07-26T13:38:12.827Z,30.54
2022-07-26T13:39:12.809Z,31.15
2022-07-26T13:40:12.810Z,31.42
2022-07-26T13:41:12.871Z,31.37
2022-07-26T13:42:12.825Z,31.34
2022-07-26T13:43:12.762Z,31.71
2022-07-26T13:44:13.418Z,31.95
2022-07-26T13:45:12.753Z,32.21
2022-07-26T13:46:12.835Z,32.54
2022-07-26T13:47:12.725Z,32.76
2022-07-26T13:48:12.724Z,33.00
2022-07-26T13:49:12.787Z,33.11
2022-07-26T13:50:12.722Z,33.35
2022-07-26T13:51:12.695Z,33.74
2022-07-26T13:52:16.482Z,34.34
2022-07-26T13:53:12.675Z,34.78
2022-07-26T13:54:13.288Z,34.94
2022-07-26T13:55:12.661Z,34.65
2022-07-26T13:56:12.680Z,34.60
2022-07-26T13:57:12.646Z,34.36
2022-07-26T13:58:12.633Z,34.52
2022-07-26T13:59:12.631Z,34.48
2022-07-26T14:00:12.618Z,34.58
2022-07-26T14:01:12.695Z,34.91
2022-07-26T14:02:12.726Z,35.13
2022-07-26T14:03:12.640Z,35.24
2022-07-26T14:04:13.244Z,35.71
2022-07-26T14:05:19.084Z,35.95
2022-07-26T14:06:12.569Z,35.32
2022-07-26T14:07:12.545Z,35.25
2022-07-26T14:08:12.562Z,35.43
2022-07-26T14:09:12.530Z,35.84
2022-07-26T14:10:12.513Z,35.74
2022-07-26T14:11:12.530Z,35.93
2022-07-26T14:12:12.539Z,36.03
2022-07-26T14:13:12.526Z,36.22
2022-07-26T14:14:12.949Z,36.56
2022-07-26T14:15:18.004Z,36.86
2022-07-26T14:16:12.501Z,37.09
2022-07-26T14:17:12.453Z,37.02
2022-07-26T14:18:12.493Z,36.97
2022-07-26T14:19:12.471Z,37.08
2022-07-26T14:20:12.444Z,37.13
2022-07-26T14:21:12.431Z,37.28
2022-07-26T14:22:12.458Z,37.24
2022-07-26T14:23:12.409Z,37.13
2022-07-26T14:24:12.702Z,37.13
2022-07-26T14:25:12.399Z,37.40
2022-07-26T14:26:12.381Z,37.56
2022-07-26T14:27:12.391Z,37.45
2022-07-26T14:28:12.350Z,37.49
2022-07-26T14:29:12.387Z,37.18
2022-07-26T14:30:12.352Z,36.67
2022-07-26T14:31:12.411Z,36.22
2022-07-26T14:32:12.404Z,35.71
2022-07-26T14:33:12.333Z,35.74
2022-07-26T14:34:12.651Z,36.52
2022-07-26T14:35:12.302Z,36.46
2022-07-26T14:36:12.308Z,36.31
2022-07-26T14:37:41.006Z,36.31
2022-07-26T14:38:12.279Z,36.30
2022-07-26T14:39:12.291Z,36.16
2022-07-26T14:40:12.260Z,36.22
2022-07-26T14:41:12.242Z,36.72
2022-07-26T14:42:12.224Z,37.31
2022-07-26T14:43:12.285Z,37.58
2022-07-26T14:44:12.647Z,37.39
2022-07-26T14:45:12.199Z,36.86
2022-07-26T14:46:12.322Z,36.68
2022-07-26T14:47:12.195Z,37.05
2022-07-26T14:48:12.188Z,36.75
2022-07-26T14:49:12.206Z,37.09
2022-07-26T14:50:12.183Z,37.34
2022-07-26T14:51:12.147Z,37.28
2022-07-26T14:52:12.141Z,37.28
2022-07-26T14:53:12.205Z,36.86
2022-07-26T14:54:12.415Z,36.05
2022-07-26T14:55:24.674Z,35.22
2022-07-26T14:56:12.154Z,34.67
2022-07-26T14:57:12.100Z,34.40
2022-07-26T14:58:12.115Z,34.11
2022-07-26T14:59:12.075Z,33.47
2022-07-26T15:00:12.109Z,32.98
2022-07-26T15:01:12.117Z,32.84
2022-07-26T15:02:12.137Z,33.17
2022-07-26T15:03:12.029Z,32.62
2022-07-26T15:04:12.407Z,32.24
2022-07-26T15:05:12.028Z,32.09
2022-07-26T15:06:12.039Z,32.98
2022-07-26T15:07:12.013Z,32.91
2022-07-26T15:08:11.998Z,32.41
2022-07-26T15:09:11.982Z,32.07
2022-07-26T15:10:11.984Z,31.78
2022-07-26T15:11:11.981Z,32.32
2022-07-26T15:12:11.979Z,33.41
2022-07-26T15:13:11.965Z,33.96
2022-07-26T15:14:12.415Z,34.06
2022-07-26T15:15:18.489Z,34.18
2022-07-26T15:16:12.010Z,34.55
2022-07-26T15:17:11.907Z,35.18
2022-07-26T15:18:11.914Z,35.58
2022-07-26T15:19:11.896Z,35.28
2022-07-26T15:20:11.890Z,34.65
2022-07-26T15:21:11.857Z,33.86
2022-07-26T15:22:11.858Z,32.90
2022-07-26T15:23:11.925Z,31.90
2022-07-26T15:24:12.265Z,31.10
2022-07-26T15:25:11.831Z,30.44
2022-07-26T15:26:11.830Z,29.97
2022-07-26T15:27:11.797Z,29.67
2022-07-26T15:28:11.786Z,29.45
2022-07-26T15:29:11.797Z,29.12
2022-07-26T15:30:14.745Z,28.92
2022-07-26T15:31:11.787Z,28.70
2022-07-26T15:32:11.885Z,28.54
2022-07-26T15:33:11.735Z,28.39
2022-07-26T15:34:12.147Z,28.23
2022-07-26T15:35:18.254Z,28.02
2022-07-26T15:36:11.697Z,27.96
2022-07-26T15:37:11.727Z,27.96
2022-07-26T15:38:11.689Z,27.81
2022-07-26T15:39:17.054Z,27.52
2022-07-26T15:40:11.699Z,27.25
2022-07-26T15:41:11.670Z,27.06
2022-07-26T15:42:11.668Z,26.87
2022-07-26T15:43:11.647Z,26.79
2022-07-26T15:44:12.502Z,26.65
2022-07-26T15:45:11.604Z,26.46
2022-07-26T15:46:11.760Z,26.31
2022-07-26T15:47:12.016Z,26.19
2022-07-26T15:48:17.236Z,26.12
2022-07-26T15:49:11.625Z,26.04
2022-07-26T15:50:11.577Z,25.98
2022-07-26T15:51:11.550Z,25.91
2022-07-26T15:52:11.557Z,25.86
2022-07-26T15:53:28.793Z,26.00
2022-07-26T15:54:11.972Z,26.06
2022-07-26T15:55:11.525Z,26.09
2022-07-26T15:56:11.484Z,26.06
2022-07-26T15:57:11.486Z,26.06
2022-07-26T15:58:11.482Z,26.13
2022-07-26T15:59:11.479Z,26.12
2022-07-26T16:00:12.195Z,26.19
2022-07-26T16:01:11.516Z,26.23
2022-07-26T16:02:11.489Z,26.20
2022-07-26T16:03:11.416Z,26.36
2022-07-26T16:04:11.901Z,26.34
2022-07-26T16:05:11.386Z,26.42
2022-07-26T16:06:11.404Z,26.64
2022-07-26T16:07:11.444Z,26.91
2022-07-26T16:08:11.415Z,27.45
2022-07-26T16:09:17.127Z,27.83
2022-07-26T16:10:11.384Z,28.01
2022-07-26T16:11:11.339Z,28.77
2022-07-26T16:12:11.339Z,29.51
2022-07-26T16:13:11.322Z,29.97
2022-07-26T16:14:11.336Z,30.10
2022-07-26T16:15:11.344Z,30.48
2022-07-26T16:16:11.409Z,30.85
2022-07-26T16:17:11.270Z,31.16
2022-07-26T16:18:11.268Z,31.15
2022-07-26T16:19:11.655Z,31.40
2022-07-26T16:20:11.259Z,31.38
2022-07-26T16:21:11.237Z,31.27
2022-07-26T16:22:11.228Z,31.42
2022-07-26T16:23:11.216Z,31.27
2022-07-26T16:24:11.212Z,31.41
2022-07-26T16:25:11.245Z,31.60
2022-07-26T16:26:11.191Z,31.68
2022-07-26T16:27:11.170Z,31.50
2022-07-26T16:28:11.167Z,31.90
2022-07-26T16:29:11.552Z,32.24
2022-07-26T16:30:11.157Z,32.14
2022-07-26T16:31:11.175Z,32.12
2022-07-26T16:32:11.225Z,32.16
2022-07-26T16:33:11.128Z,32.16
2022-07-26T16:34:11.119Z,32.03
2022-07-26T16:35:11.086Z,32.10
2022-07-26T16:36:11.102Z,32.36
2022-07-26T16:37:11.077Z,32.43
2022-07-26T16:38:11.080Z,32.32
2022-07-26T16:39:11.465Z,32.25
2022-07-26T16:40:11.052Z,32.19
2022-07-26T16:41:11.035Z,32.12
2022-07-26T16:42:11.022Z,31.71
2022-07-26T16:43:11.986Z,31.13
2022-07-26T16:44:11.019Z,30.96
2022-07-26T16:45:10.982Z,30.97
2022-07-26T16:46:11.046Z,31.10
2022-07-26T16:47:10.998Z,31.38
2022-07-26T16:48:10.993Z,31.42
2022-07-26T16:49:11.325Z,31.45
2022-07-26T16:50:10.943Z,31.23
2022-07-26T16:51:10.933Z,30.97
2022-07-26T16:52:10.916Z,30.82
2022-07-26T16:53:13.328Z,30.63
2022-07-26T16:54:10.925Z,30.49
2022-07-26T16:55:10.895Z,30.44
2022-07-26T16:56:10.929Z,30.29
2022-07-26T16:57:10.875Z,29.70
2022-07-26T16:58:10.864Z,28.95
2022-07-26T16:59:10.923Z,28.70
2022-07-26T17:00:10.847Z,28.42
2022-07-26T17:01:10.860Z,28.05
2022-07-26T17:02:10.870Z,27.66
2022-07-26T17:03:10.817Z,27.31
2022-07-26T17:04:10.798Z,27.03
2022-07-26T17:05:17.339Z,26.76
2022-07-26T17:06:10.776Z,26.59
2022-07-26T17:07:26.520Z,26.38
2022-07-26T17:08:10.787Z,26.28
2022-07-26T17:09:15.083Z,26.28
2022-07-26T17:10:10.724Z,26.27
2022-07-26T17:11:10.725Z,26.19
2022-07-26T17:12:10.712Z,26.20
2022-07-26T17:13:10.700Z,26.16
2022-07-26T17:14:13.259Z,26.16
2022-07-26T17:15:10.677Z,26.01
2022-07-26T17:16:10.727Z,25.83
2022-07-26T17:17:10.664Z,25.74
2022-07-26T17:18:10.632Z,25.71
2022-07-26T17:19:10.964Z,25.69
2022-07-26T17:20:10.643Z,25.66
2022-07-26T17:21:10.613Z,25.63
2022-07-26T17:22:10.607Z,25.60
2022-07-26T17:23:10.597Z,25.48
2022-07-26T17:24:10.582Z,25.36
2022-07-26T17:25:10.572Z,25.23
2022-07-26T17:26:10.556Z,25.17
2022-07-26T17:27:10.547Z,25.16
2022-07-26T17:28:10.535Z,25.16
2022-07-26T17:29:10.815Z,25.12
2022-07-26T17:30:10.521Z,25.09
2022-07-26T17:31:10.504Z,25.02
2022-07-26T17:32:10.494Z,25.04
2022-07-26T17:33:10.561Z,25.04
2022-07-26T17:34:10.480Z,25.02
2022-07-26T17:35:16.979Z,24.94
2022-07-26T17:36:10.454Z,24.98
2022-07-26T17:37:10.626Z,25.04
2022-07-26T17:38:10.429Z,25.08
2022-07-26T17:39:14.847Z,25.12
2022-07-26T17:40:10.418Z,25.17